Sunday, October 22, 2017, 5:13 PM EDT
Back to Local

KHZY, Ashtabula County Airport

Location: Jefferson, OH, United States Lat: 41.783
Local Time: 5:13 PM EDT (21:13 GMT) Lon: -80.7
Time Zone: US/Eastern Elev: 925 ft

Show me the last for .
Show Coded

Time T Td Feel RH Dir Speed Gust Alt SLP Vis Weather Sky Remarks
2017-10-22 16:53 74 52 77 46 150° 9 - 30.16 30.15 10 CLR None
2017-10-22 15:53 72 51 76 47 160° 8 - 30.18 30.17 10 CLR None
2017-10-22 14:53 75 49 - 39 200° 10 - 30.19 30.18 10 CLR None
2017-10-22 13:53 74 52 77 46 150° 9 - 30.22 30.21 10 CLR 6-hr Min Temp (2pm): 53.1°F
6-hr Max Temp (2pm): 73.9°F
2017-10-22 12:53 72 52 76 49 170° 10 - 30.24 30.23 10 CLR None
2017-10-22 11:53 70 53 - 55 180° 12 - 30.26 30.25 10 CLR None
2017-10-22 10:53 64 54 - 69 180° 9 - 30.27 30.26 10 CLR None
2017-10-22 09:53 61 53 - 75 170° 8 - 30.27 30.26 10 CLR None
2017-10-22 08:53 56 52 - 86 160° 7 - 30.27 30.27 10 CLR None
2017-10-22 07:53 53 50 - 89 140° 7 - 30.27 30.27 10 CLR 6-hr Min Temp (8am): 48.0°F
6-hr Max Temp (8am): 55.9°F
2017-10-22 06:53 53 50 - 89 140° 6 - 30.27 30.27 10 CLR None
2017-10-22 05:53 53 50 - 89 150° 6 - 30.28 30.27 10 CLR None
2017-10-22 04:53 50 49 - 96 - Calm - 30.27 30.27 10 CLR None
2017-10-22 03:53 51 49 - 92 160° 6 - 30.26 30.25 10 CLR None
2017-10-22 02:53 53 50 - 89 170° 5 - 30.26 30.25 10 CLR None
2017-10-22 01:53 56 51 - 83 170° 8 - 30.24 30.23 10 CLR 6-hr Min Temp (2am): 55.9°F
6-hr Max Temp (2am): 64.0°F
2017-10-22 00:53 58 51 - 77 160° 7 - 30.24 30.23 10 CLR 24-hr Min Temp (1am): 44.1°F
24-hr Max Temp (1am): 72.0°F
2017-10-21 23:53 59 52 - 77 160° 7 - 30.24 30.23 10 CLR None
2017-10-21 22:53 61 51 - 69 170° 6 - 30.24 30.24 10 CLR None
2017-10-21 21:53 62 51 - 67 160° 7 - 30.26 30.25 10 CLR None
2017-10-21 20:53 63 50 - 62 170° 5 - 30.26 30.25 10 CLR None
2017-10-21 19:53 64 51 - 62 160° 5 - 30.25 30.25 10 CLR 6-hr Min Temp (8pm): 59.0°F
6-hr Max Temp (8pm): 72.0°F
2017-10-21 18:53 61 51 - 69 170° 3 - 30.25 30.26 10 CLR None
2017-10-21 17:53 68 49 - 50 180° 3 - 30.24 30.24 10 CLR None

Support USWX by starting your Amazon purchase here.